sensor_id;sensor_type;location;lat;lon;timestamp;temperature;humidity
14850;DHT22;7517;48.400;11.770;2023-02-14T00:02:23;7.00;72.70
14850;DHT22;7517;48.400;11.770;2023-02-14T00:04:50;7.00;72.90
14850;DHT22;7517;48.400;11.770;2023-02-14T00:07:18;6.90;72.90
14850;DHT22;7517;48.400;11.770;2023-02-14T00:09:46;7.00;72.90
14850;DHT22;7517;48.400;11.770;2023-02-14T00:12:13;7.00;72.80
14850;DHT22;7517;48.400;11.770;2023-02-14T00:14:40;7.00;72.80
14850;DHT22;7517;48.400;11.770;2023-02-14T00:17:25;7.00;72.80
14850;DHT22;7517;48.400;11.770;2023-02-14T00:19:52;7.10;72.80
14850;DHT22;7517;48.400;11.770;2023-02-14T00:22:20;7.10;72.80
14850;DHT22;7517;48.400;11.770;2023-02-14T00:24:47;7.10;72.80
14850;DHT22;7517;48.400;11.770;2023-02-14T00:27:14;7.00;72.60
14850;DHT22;7517;48.400;11.770;2023-02-14T00:29:42;7.00;72.40
14850;DHT22;7517;48.400;11.770;2023-02-14T00:32:09;7.00;72.50
14850;DHT22;7517;48.400;11.770;2023-02-14T00:34:36;7.00;72.60
14850;DHT22;7517;48.400;11.770;2023-02-14T00:37:03;6.90;72.60
14850;DHT22;7517;48.400;11.770;2023-02-14T00:39:32;6.90;72.60
14850;DHT22;7517;48.400;11.770;2023-02-14T00:41:59;6.90;72.60
14850;DHT22;7517;48.400;11.770;2023-02-14T00:44:26;6.90;72.70
14850;DHT22;7517;48.400;11.770;2023-02-14T00:46:53;6.90;72.80
14850;DHT22;7517;48.400;11.770;2023-02-14T00:49:21;6.80;72.90
14850;DHT22;7517;48.400;11.770;2023-02-14T00:51:48;6.80;72.90
14850;DHT22;7517;48.400;11.770;2023-02-14T00:54:15;6.80;72.90
14850;DHT22;7517;48.400;11.770;2023-02-14T00:56:43;6.80;73.10
14850;DHT22;7517;48.400;11.770;2023-02-14T00:59:11;6.80;73.20
14850;DHT22;7517;48.400;11.770;2023-02-14T01:01:38;6.80;73.10
14850;DHT22;7517;48.400;11.770;2023-02-14T01:04:06;6.80;73.00
14850;DHT22;7517;48.400;11.770;2023-02-14T01:06:33;6.80;72.90
14850;DHT22;7517;48.400;11.770;2023-02-14T01:09:01;6.80;72.80
14850;DHT22;7517;48.400;11.770;2023-02-14T01:11:28;6.80;72.80
14850;DHT22;7517;48.400;11.770;2023-02-14T01:13:58;6.80;73.00
14850;DHT22;7517;48.400;11.770;2023-02-14T01:16:28;6.70;72.90
14850;DHT22;7517;48.400;11.770;2023-02-14T01:45:02;6.50;73.10
14850;DHT22;7517;48.400;11.770;2023-02-14T01:47:37;6.50;73.30
14850;DHT22;7517;48.400;11.770;2023-02-14T01:50:11;6.50;73.00
14850;DHT22;7517;48.400;11.770;2023-02-14T01:52:47;6.40;72.70
14850;DHT22;7517;48.400;11.770;2023-02-14T01:55:28;7.00;72.90
14850;DHT22;7517;48.400;11.770;2023-02-14T01:58:05;6.30;72.60
14850;DHT22;7517;48.400;11.770;2023-02-14T02:00:41;6.30;72.90
14850;DHT22;7517;48.400;11.770;2023-02-14T02:03:29;6.30;73.10
14850;DHT22;7517;48.400;11.770;2023-02-14T02:06:06;6.30;73.20
14850;DHT22;7517;48.400;11.770;2023-02-14T02:08:42;5.20;72.50
14850;DHT22;7517;48.400;11.770;2023-02-14T02:11:14;6.90;73.70
14850;DHT22;7517;48.400;11.770;2023-02-14T02:13:41;6.30;73.40
14850;DHT22;7517;48.400;11.770;2023-02-14T02:16:21;6.30;73.50
14850;DHT22;7517;48.400;11.770;2023-02-14T02:36:06;6.30;73.30
14850;DHT22;7517;48.400;11.770;2023-02-14T02:39:09;6.30;73.30
14850;DHT22;7517;48.400;11.770;2023-02-14T02:41:51;6.30;73.40
14850;DHT22;7517;48.400;11.770;2023-02-14T02:44:31;7.00;73.90
14850;DHT22;7517;48.400;11.770;2023-02-14T02:47:15;6.20;73.30
14850;DHT22;7517;48.400;11.770;2023-02-14T02:49:55;6.30;73.60
14850;DHT22;7517;48.400;11.770;2023-02-14T02:52:52;6.30;73.70
14850;DHT22;7517;48.400;11.770;2023-02-14T02:55:39;6.30;73.80
14850;DHT22;7517;48.400;11.770;2023-02-14T02:58:31;6.30;73.70
14850;DHT22;7517;48.400;11.770;2023-02-14T03:01:13;6.30;73.50
14850;DHT22;7517;48.400;11.770;2023-02-14T03:03:47;6.30;73.60
14850;DHT22;7517;48.400;11.770;2023-02-14T03:06:35;6.30;73.70
14850;DHT22;7517;48.400;11.770;2023-02-14T03:09:11;6.30;73.50
14850;DHT22;7517;48.400;11.770;2023-02-14T03:12:09;6.30;73.60
14850;DHT22;7517;48.400;11.770;2023-02-14T03:14:53;6.30;73.70
14850;DHT22;7517;48.400;11.770;2023-02-14T03:17:34;6.30;73.70
14850;DHT22;7517;48.400;11.770;2023-02-14T03:20:13;6.30;73.60
14850;DHT22;7517;48.400;11.770;2023-02-14T03:23:07;6.20;73.40
14850;DHT22;7517;48.400;11.770;2023-02-14T03:26:09;6.20;73.70
14850;DHT22;7517;48.400;11.770;2023-02-14T03:28:46;6.20;73.70
14850;DHT22;7517;48.400;11.770;2023-02-14T03:31:22;6.40;74.50
14850;DHT22;7517;48.400;11.770;2023-02-14T03:33:58;6.20;73.50
14850;DHT22;7517;48.400;11.770;2023-02-14T03:36:32;5.40;73.10
14850;DHT22;7517;48.400;11.770;2023-02-14T03:39:07;6.20;73.70
14850;DHT22;7517;48.400;11.770;2023-02-14T03:41:46;6.20;73.90
14850;DHT22;7517;48.400;11.770;2023-02-14T03:44:20;6.20;73.90
14850;DHT22;7517;48.400;11.770;2023-02-14T03:46:55;6.20;73.90
14850;DHT22;7517;48.400;11.770;2023-02-14T03:49:28;6.20;73.90
14850;DHT22;7517;48.400;11.770;2023-02-14T03:52:00;6.20;73.80
14850;DHT22;7517;48.400;11.770;2023-02-14T03:54:31;6.30;73.80
14850;DHT22;7517;48.400;11.770;2023-02-14T03:57:06;6.20;73.50
14850;DHT22;7517;48.400;11.770;2023-02-14T03:59:39;6.20;73.50
14850;DHT22;7517;48.400;11.770;2023-02-14T04:02:10;6.50;73.80
14850;DHT22;7517;48.400;11.770;2023-02-14T04:04:44;6.20;73.60
14850;DHT22;7517;48.400;11.770;2023-02-14T04:07:18;6.20;73.60
14850;DHT22;7517;48.400;11.770;2023-02-14T04:09:50;6.20;73.60
14850;DHT22;7517;48.400;11.770;2023-02-14T04:12:19;6.20;73.50
14850;DHT22;7517;48.400;11.770;2023-02-14T04:14:47;6.20;73.50
14850;DHT22;7517;48.400;11.770;2023-02-14T04:17:17;6.20;73.50
14850;DHT22;7517;48.400;11.770;2023-02-14T04:20:01;6.20;73.40
14850;DHT22;7517;48.400;11.770;2023-02-14T04:22:28;6.10;73.10
14850;DHT22;7517;48.400;11.770;2023-02-14T04:24:56;6.10;72.90
14850;DHT22;7517;48.400;11.770;2023-02-14T04:27:24;6.10;73.00
14850;DHT22;7517;48.400;11.770;2023-02-14T04:29:51;6.10;73.20
14850;DHT22;7517;48.400;11.770;2023-02-14T04:32:22;6.00;73.50
14850;DHT22;7517;48.400;11.770;2023-02-14T04:34:49;6.00;73.60
14850;DHT22;7517;48.400;11.770;2023-02-14T04:37:18;6.00;73.80
14850;DHT22;7517;48.400;11.770;2023-02-14T04:39:45;6.00;73.90
14850;DHT22;7517;48.400;11.770;2023-02-14T04:42:13;6.00;73.90
14850;DHT22;7517;48.400;11.770;2023-02-14T04:44:41;6.00;73.90
14850;DHT22;7517;48.400;11.770;2023-02-14T04:47:09;6.00;73.80
14850;DHT22;7517;48.400;11.770;2023-02-14T04:49:36;6.00;73.80
14850;DHT22;7517;48.400;11.770;2023-02-14T04:52:04;6.00;73.90
14850;DHT22;7517;48.400;11.770;2023-02-14T04:54:32;6.00;73.80
14850;DHT22;7517;48.400;11.770;2023-02-14T04:57:00;5.90;73.80
14850;DHT22;7517;48.400;11.770;2023-02-14T04:59:27;5.90;73.90
14850;DHT22;7517;48.400;11.770;2023-02-14T05:01:56;5.90;74.10
14850;DHT22;7517;48.400;11.770;2023-02-14T05:04:23;6.10;74.30
14850;DHT22;7517;48.400;11.770;2023-02-14T05:06:51;5.90;74.10
14850;DHT22;7517;48.400;11.770;2023-02-14T05:09:18;5.90;74.10
14850;DHT22;7517;48.400;11.770;2023-02-14T05:11:45;6.00;74.00
14850;DHT22;7517;48.400;11.770;2023-02-14T05:14:12;5.90;74.00
14850;DHT22;7517;48.400;11.770;2023-02-14T05:16:40;5.90;74.10
14850;DHT22;7517;48.400;11.770;2023-02-14T05:19:08;6.00;74.10
14850;DHT22;7517;48.400;11.770;2023-02-14T05:21:35;6.00;74.10
14850;DHT22;7517;48.400;11.770;2023-02-14T05:24:03;6.00;74.00
14850;DHT22;7517;48.400;11.770;2023-02-14T05:26:31;6.00;74.10
14850;DHT22;7517;48.400;11.770;2023-02-14T05:28:58;6.00;74.20
14850;DHT22;7517;48.400;11.770;2023-02-14T05:31:26;6.00;74.10
14850;DHT22;7517;48.400;11.770;2023-02-14T05:33:53;6.00;74.10
14850;DHT22;7517;48.400;11.770;2023-02-14T05:36:22;6.10;74.30
14850;DHT22;7517;48.400;11.770;2023-02-14T05:38:49;6.00;74.10
14850;DHT22;7517;48.400;11.770;2023-02-14T05:41:17;6.00;73.70
14850;DHT22;7517;48.400;11.770;2023-02-14T05:43:44;6.00;73.80
14850;DHT22;7517;48.400;11.770;2023-02-14T05:46:11;6.00;73.70
14850;DHT22;7517;48.400;11.770;2023-02-14T05:48:38;6.00;73.60
14850;DHT22;7517;48.400;11.770;2023-02-14T05:51:07;5.90;73.20
14850;DHT22;7517;48.400;11.770;2023-02-14T05:53:37;6.70;73.50
14850;DHT22;7517;48.400;11.770;2023-02-14T05:56:05;6.30;73.20
14850;DHT22;7517;48.400;11.770;2023-02-14T05:58:32;5.80;73.10
14850;DHT22;7517;48.400;11.770;2023-02-14T06:01:00;5.80;74.10
14850;DHT22;7517;48.400;11.770;2023-02-14T06:03:27;5.80;73.30
14850;DHT22;7517;48.400;11.770;2023-02-14T06:05:55;6.30;73.80
14850;DHT22;7517;48.400;11.770;2023-02-14T06:08:22;5.80;73.60
14850;DHT22;7517;48.400;11.770;2023-02-14T06:10:51;5.80;73.70
14850;DHT22;7517;48.400;11.770;2023-02-14T06:13:18;5.80;73.90
14850;DHT22;7517;48.400;11.770;2023-02-14T06:15:45;5.80;73.80
14850;DHT22;7517;48.400;11.770;2023-02-14T06:18:13;5.70;73.60
14850;DHT22;7517;48.400;11.770;2023-02-14T06:20:40;5.70;73.60
14850;DHT22;7517;48.400;11.770;2023-02-14T06:23:07;5.70;73.80
14850;DHT22;7517;48.400;11.770;2023-02-14T06:25:34;5.70;74.00
14850;DHT22;7517;48.400;11.770;2023-02-14T06:28:03;5.70;74.20
14850;DHT22;7517;48.400;11.770;2023-02-14T06:30:31;5.70;74.20
14850;DHT22;7517;48.400;11.770;2023-02-14T06:32:58;5.70;73.90
14850;DHT22;7517;48.400;11.770;2023-02-14T06:35:25;5.70;73.70
14850;DHT22;7517;48.400;11.770;2023-02-14T06:37:52;5.70;73.50
14850;DHT22;7517;48.400;11.770;2023-02-14T06:40:20;5.70;73.50
14850;DHT22;7517;48.400;11.770;2023-02-14T06:42:48;5.70;73.60
14850;DHT22;7517;48.400;11.770;2023-02-14T06:45:17;5.70;73.80
14850;DHT22;7517;48.400;11.770;2023-02-14T06:47:45;5.70;73.90
14850;DHT22;7517;48.400;11.770;2023-02-14T06:50:16;5.70;73.80
14850;DHT22;7517;48.400;11.770;2023-02-14T06:53:23;5.70;73.80
14850;DHT22;7517;48.400;11.770;2023-02-14T06:56:06;5.70;74.00
14850;DHT22;7517;48.400;11.770;2023-02-14T06:58:44;5.70;74.10
14850;DHT22;7517;48.400;11.770;2023-02-14T07:01:27;5.70;74.30
14850;DHT22;7517;48.400;11.770;2023-02-14T07:04:12;5.70;73.90
14850;DHT22;7517;48.400;11.770;2023-02-14T07:06:49;5.70;73.60
14850;DHT22;7517;48.400;11.770;2023-02-14T07:09:16;5.70;73.50
14850;DHT22;7517;48.400;11.770;2023-02-14T07:11:44;5.70;73.80
14850;DHT22;7517;48.400;11.770;2023-02-14T07:14:12;6.50;74.20
14850;DHT22;7517;48.400;11.770;2023-02-14T07:19:24;7.10;74.50
14850;DHT22;7517;48.400;11.770;2023-02-14T07:21:51;5.70;73.50
14850;DHT22;7517;48.400;11.770;2023-02-14T07:24:22;5.70;73.50
14850;DHT22;7517;48.400;11.770;2023-02-14T07:26:49;5.70;73.60
14850;DHT22;7517;48.400;11.770;2023-02-14T07:29:16;5.70;73.80
14850;DHT22;7517;48.400;11.770;2023-02-14T07:31:45;5.70;73.90
14850;DHT22;7517;48.400;11.770;2023-02-14T07:34:12;5.70;73.80
14850;DHT22;7517;48.400;11.770;2023-02-14T07:36:43;5.70;73.80
14850;DHT22;7517;48.400;11.770;2023-02-14T07:39:11;5.80;74.10
14850;DHT22;7517;48.400;11.770;2023-02-14T07:41:42;6.20;74.40
14850;DHT22;7517;48.400;11.770;2023-02-14T07:44:10;5.80;74.00
14850;DHT22;7517;48.400;11.770;2023-02-14T07:46:37;5.80;73.80
14850;DHT22;7517;48.400;11.770;2023-02-14T07:49:07;5.90;73.60
14850;DHT22;7517;48.400;11.770;2023-02-14T07:51:37;5.90;73.50
14850;DHT22;7517;48.400;11.770;2023-02-14T07:54:08;5.90;73.60
14850;DHT22;7517;48.400;11.770;2023-02-14T07:56:37;5.80;73.80
14850;DHT22;7517;48.400;11.770;2023-02-14T07:59:06;5.90;73.90
14850;DHT22;7517;48.400;11.770;2023-02-14T08:01:39;6.00;74.10
14850;DHT22;7517;48.400;11.770;2023-02-14T08:04:07;5.90;74.00
14850;DHT22;7517;48.400;11.770;2023-02-14T08:06:38;5.90;73.90
14850;DHT22;7517;48.400;11.770;2023-02-14T08:09:10;5.90;73.40
14850;DHT22;7517;48.400;11.770;2023-02-14T08:11:52;6.00;73.10
14850;DHT22;7517;48.400;11.770;2023-02-14T08:14:38;5.90;72.80
14850;DHT22;7517;48.400;11.770;2023-02-14T08:17:06;5.80;72.50
14850;DHT22;7517;48.400;11.770;2023-02-14T08:19:34;5.80;72.30
14850;DHT22;7517;48.400;11.770;2023-02-14T08:22:05;5.80;72.50
14850;DHT22;7517;48.400;11.770;2023-02-14T08:24:41;5.80;72.90
14850;DHT22;7517;48.400;11.770;2023-02-14T08:27:19;5.80;72.90
14850;DHT22;7517;48.400;11.770;2023-02-14T08:29:52;5.70;72.70
14850;DHT22;7517;48.400;11.770;2023-02-14T08:32:19;5.70;72.80
14850;DHT22;7517;48.400;11.770;2023-02-14T08:34:46;5.70;73.10
14850;DHT22;7517;48.400;11.770;2023-02-14T08:37:14;5.70;73.20
14850;DHT22;7517;48.400;11.770;2023-02-14T08:39:45;5.70;73.30
14850;DHT22;7517;48.400;11.770;2023-02-14T08:42:12;5.80;73.30
14850;DHT22;7517;48.400;11.770;2023-02-14T08:44:44;5.80;73.30
14850;DHT22;7517;48.400;11.770;2023-02-14T08:47:11;5.80;73.30
14850;DHT22;7517;48.400;11.770;2023-02-14T08:49:41;5.90;73.50
14850;DHT22;7517;48.400;11.770;2023-02-14T08:52:09;6.00;73.40
14850;DHT22;7517;48.400;11.770;2023-02-14T08:54:39;5.90;73.20
14850;DHT22;7517;48.400;11.770;2023-02-14T08:57:10;5.90;73.00
14850;DHT22;7517;48.400;11.770;2023-02-14T08:59:40;5.90;72.80
14850;DHT22;7517;48.400;11.770;2023-02-14T09:02:11;5.90;72.50
14850;DHT22;7517;48.400;11.770;2023-02-14T09:04:41;6.00;72.50
14850;DHT22;7517;48.400;11.770;2023-02-14T09:07:11;5.90;72.50
14850;DHT22;7517;48.400;11.770;2023-02-14T09:09:41;5.90;72.70
14850;DHT22;7517;48.400;11.770;2023-02-14T09:12:15;5.90;72.90
14850;DHT22;7517;48.400;11.770;2023-02-14T09:14:43;6.00;73.10
14850;DHT22;7517;48.400;11.770;2023-02-14T09:17:11;6.00;73.10
14850;DHT22;7517;48.400;11.770;2023-02-14T09:19:39;6.10;73.20
14850;DHT22;7517;48.400;11.770;2023-02-14T09:22:08;6.10;73.30
14850;DHT22;7517;48.400;11.770;2023-02-14T09:24:37;6.10;73.40
14850;DHT22;7517;48.400;11.770;2023-02-14T09:27:07;6.10;73.40
14850;DHT22;7517;48.400;11.770;2023-02-14T09:29:40;6.20;73.30
14850;DHT22;7517;48.400;11.770;2023-02-14T09:32:07;6.20;73.30
14850;DHT22;7517;48.400;11.770;2023-02-14T09:34:34;6.30;73.20
14850;DHT22;7517;48.400;11.770;2023-02-14T09:37:19;6.30;73.10
14850;DHT22;7517;48.400;11.770;2023-02-14T09:40:04;6.40;73.00
14850;DHT22;7517;48.400;11.770;2023-02-14T09:42:50;6.40;72.80
14850;DHT22;7517;48.400;11.770;2023-02-14T09:45:37;6.50;72.60
14850;DHT22;7517;48.400;11.770;2023-02-14T09:48:08;6.40;72.60
14850;DHT22;7517;48.400;11.770;2023-02-14T09:50:44;6.40;72.70
14850;DHT22;7517;48.400;11.770;2023-02-14T09:53:19;6.50;72.80
14850;DHT22;7517;48.400;11.770;2023-02-14T09:56:03;6.50;72.50
14850;DHT22;7517;48.400;11.770;2023-02-14T09:58:41;6.60;72.40
14850;DHT22;7517;48.400;11.770;2023-02-14T10:01:17;6.60;72.30
14850;DHT22;7517;48.400;11.770;2023-02-14T10:03:58;6.60;72.00
14850;DHT22;7517;48.400;11.770;2023-02-14T10:06:53;6.60;71.90
14850;DHT22;7517;48.400;11.770;2023-02-14T10:09:39;6.60;72.20
14850;DHT22;7517;48.400;11.770;2023-02-14T10:12:20;6.60;72.00
14850;DHT22;7517;48.400;11.770;2023-02-14T10:14:51;6.60;71.60
14850;DHT22;7517;48.400;11.770;2023-02-14T10:17:32;6.50;71.50
14850;DHT22;7517;48.400;11.770;2023-02-14T10:20:15;6.60;71.70
14850;DHT22;7517;48.400;11.770;2023-02-14T10:22:53;6.60;71.90
14850;DHT22;7517;48.400;11.770;2023-02-14T10:25:34;6.60;72.10
14850;DHT22;7517;48.400;11.770;2023-02-14T10:28:11;6.60;72.20
14850;DHT22;7517;48.400;11.770;2023-02-14T10:30:46;7.00;72.30
14850;DHT22;7517;48.400;11.770;2023-02-14T10:33:30;7.80;72.70
14850;DHT22;7517;48.400;11.770;2023-02-14T10:36:10;6.70;71.70
14850;DHT22;7517;48.400;11.770;2023-02-14T10:38:48;6.60;71.70
14850;DHT22;7517;48.400;11.770;2023-02-14T10:41:29;6.70;72.00
14850;DHT22;7517;48.400;11.770;2023-02-14T10:44:15;6.70;72.10
14850;DHT22;7517;48.400;11.770;2023-02-14T10:46:56;6.70;71.90
14850;DHT22;7517;48.400;11.770;2023-02-14T10:49:38;6.70;71.80
14850;DHT22;7517;48.400;11.770;2023-02-14T10:52:17;6.70;71.60
14850;DHT22;7517;48.400;11.770;2023-02-14T10:54:53;6.70;71.40
14850;DHT22;7517;48.400;11.770;2023-02-14T10:57:26;6.60;71.30
14850;DHT22;7517;48.400;11.770;2023-02-14T10:59:59;6.70;71.50
14850;DHT22;7517;48.400;11.770;2023-02-14T11:02:32;6.70;71.90
14850;DHT22;7517;48.400;11.770;2023-02-14T11:05:19;6.70;72.00
14850;DHT22;7517;48.400;11.770;2023-02-14T11:07:50;6.80;72.00
14850;DHT22;7517;48.400;11.770;2023-02-14T11:10:21;6.80;71.80
14850;DHT22;7517;48.400;11.770;2023-02-14T11:12:52;6.80;71.90
14850;DHT22;7517;48.400;11.770;2023-02-14T11:15:23;6.90;72.20
14850;DHT22;7517;48.400;11.770;2023-02-14T11:18:15;6.90;72.30
14850;DHT22;7517;48.400;11.770;2023-02-14T11:20:58;7.00;71.80
14850;DHT22;7517;48.400;11.770;2023-02-14T11:23:35;7.00;71.50
14850;DHT22;7517;48.400;11.770;2023-02-14T11:26:09;7.00;71.40
14850;DHT22;7517;48.400;11.770;2023-02-14T11:28:48;7.00;71.50
14850;DHT22;7517;48.400;11.770;2023-02-14T11:31:25;7.00;71.50
14850;DHT22;7517;48.400;11.770;2023-02-14T11:33:55;7.00;71.40
14850;DHT22;7517;48.400;11.770;2023-02-14T11:36:28;7.00;71.40
14850;DHT22;7517;48.400;11.770;2023-02-14T11:39:14;7.00;72.00
14850;DHT22;7517;48.400;11.770;2023-02-14T11:41:49;7.10;71.40
14850;DHT22;7517;48.400;11.770;2023-02-14T11:44:21;7.10;71.60
14850;DHT22;7517;48.400;11.770;2023-02-14T11:46:49;7.10;71.80
14850;DHT22;7517;48.400;11.770;2023-02-14T11:49:24;7.20;71.80
14850;DHT22;7517;48.400;11.770;2023-02-14T11:51:57;7.20;71.80
14850;DHT22;7517;48.400;11.770;2023-02-14T11:54:33;7.30;72.00
14850;DHT22;7517;48.400;11.770;2023-02-14T11:57:04;7.30;72.10
14850;DHT22;7517;48.400;11.770;2023-02-14T11:59:37;7.40;71.90
14850;DHT22;7517;48.400;11.770;2023-02-14T12:02:26;7.40;71.70
14850;DHT22;7517;48.400;11.770;2023-02-14T12:04:58;7.50;71.70
14850;DHT22;7517;48.400;11.770;2023-02-14T12:07:33;7.50;71.70
14850;DHT22;7517;48.400;11.770;2023-02-14T12:10:18;7.50;71.60
14850;DHT22;7517;48.400;11.770;2023-02-14T12:12:49;7.60;71.50
14850;DHT22;7517;48.400;11.770;2023-02-14T12:15:27;7.60;71.50
14850;DHT22;7517;48.400;11.770;2023-02-14T12:18:21;7.60;71.60
14850;DHT22;7517;48.400;11.770;2023-02-14T12:21:11;7.70;71.50
14850;DHT22;7517;48.400;11.770;2023-02-14T12:24:04;7.70;71.50
14850;DHT22;7517;48.400;11.770;2023-02-14T12:26:43;7.80;71.50
14850;DHT22;7517;48.400;11.770;2023-02-14T12:29:18;7.80;71.40
14850;DHT22;7517;48.400;11.770;2023-02-14T12:31:51;7.80;71.00
14850;DHT22;7517;48.400;11.770;2023-02-14T12:34:19;7.80;71.00
14850;DHT22;7517;48.400;11.770;2023-02-14T12:37:07;7.80;70.80
14850;DHT22;7517;48.400;11.770;2023-02-14T12:39:53;7.90;70.90
14850;DHT22;7517;48.400;11.770;2023-02-14T12:42:42;7.90;70.80
14850;DHT22;7517;48.400;11.770;2023-02-14T12:45:25;7.80;70.90
14850;DHT22;7517;48.400;11.770;2023-02-14T12:48:17;7.90;70.80
14850;DHT22;7517;48.400;11.770;2023-02-14T12:50:53;7.90;70.90
14850;DHT22;7517;48.400;11.770;2023-02-14T12:53:37;7.90;71.00
14850;DHT22;7517;48.400;11.770;2023-02-14T12:56:20;7.90;70.90
14850;DHT22;7517;48.400;11.770;2023-02-14T12:59:04;7.90;71.20
14850;DHT22;7517;48.400;11.770;2023-02-14T13:04:59;8.00;70.90
14850;DHT22;7517;48.400;11.770;2023-02-14T13:07:39;8.00;71.00
14850;DHT22;7517;48.400;11.770;2023-02-14T13:10:23;8.00;71.10
14850;DHT22;7517;48.400;11.770;2023-02-14T13:13:06;8.10;71.20
14850;DHT22;7517;48.400;11.770;2023-02-14T13:15:45;8.10;71.10
14850;DHT22;7517;48.400;11.770;2023-02-14T13:18:32;8.20;71.10
14850;DHT22;7517;48.400;11.770;2023-02-14T13:21:09;8.10;71.10
14850;DHT22;7517;48.400;11.770;2023-02-14T13:23:41;8.10;71.10
14850;DHT22;7517;48.400;11.770;2023-02-14T13:26:14;8.10;71.00
14850;DHT22;7517;48.400;11.770;2023-02-14T13:28:50;8.20;71.10
14850;DHT22;7517;48.400;11.770;2023-02-14T13:31:21;8.20;71.10
14850;DHT22;7517;48.400;11.770;2023-02-14T13:33:51;8.20;71.10
14850;DHT22;7517;48.400;11.770;2023-02-14T13:36:21;8.30;71.00
14850;DHT22;7517;48.400;11.770;2023-02-14T13:38:55;8.20;70.80
14850;DHT22;7517;48.400;11.770;2023-02-14T13:41:25;8.30;70.80
14850;DHT22;7517;48.400;11.770;2023-02-14T13:43:55;8.30;70.60
14850;DHT22;7517;48.400;11.770;2023-02-14T13:46:50;8.10;70.40
14850;DHT22;7517;48.400;11.770;2023-02-14T13:49:29;8.20;70.40
14850;DHT22;7517;48.400;11.770;2023-02-14T13:52:00;8.20;70.40
14850;DHT22;7517;48.400;11.770;2023-02-14T13:54:42;8.20;70.40
14850;DHT22;7517;48.400;11.770;2023-02-14T13:57:25;8.20;70.40
14850;DHT22;7517;48.400;11.770;2023-02-14T14:03:54;8.10;70.60
14850;DHT22;7517;48.400;11.770;2023-02-14T14:06:22;8.10;70.40
14850;DHT22;7517;48.400;11.770;2023-02-14T14:08:51;8.40;70.70
14850;DHT22;7517;48.400;11.770;2023-02-14T14:11:49;7.90;70.60
14850;DHT22;7517;48.400;11.770;2023-02-14T14:14:40;8.10;70.60
14850;DHT22;7517;48.400;11.770;2023-02-14T14:17:21;8.10;70.80
14850;DHT22;7517;48.400;11.770;2023-02-14T14:19:50;8.10;70.70
14850;DHT22;7517;48.400;11.770;2023-02-14T14:22:18;8.10;70.40
14850;DHT22;7517;48.400;11.770;2023-02-14T14:24:55;8.10;70.10
14850;DHT22;7517;48.400;11.770;2023-02-14T14:27:28;8.10;70.00
14850;DHT22;7517;48.400;11.770;2023-02-14T14:30:00;8.00;70.90
14850;DHT22;7517;48.400;11.770;2023-02-14T14:32:31;8.00;70.50
14850;DHT22;7517;48.400;11.770;2023-02-14T14:35:02;8.00;70.80
14850;DHT22;7517;48.400;11.770;2023-02-14T14:37:34;8.00;70.70
14850;DHT22;7517;48.400;11.770;2023-02-14T14:40:05;8.00;70.70
14850;DHT22;7517;48.400;11.770;2023-02-14T14:42:36;8.00;70.80
14850;DHT22;7517;48.400;11.770;2023-02-14T14:45:15;8.00;70.70
14850;DHT22;7517;48.400;11.770;2023-02-14T14:47:51;8.00;70.70
14850;DHT22;7517;48.400;11.770;2023-02-14T14:50:22;8.00;70.30
14850;DHT22;7517;48.400;11.770;2023-02-14T14:52:53;8.00;70.10
14850;DHT22;7517;48.400;11.770;2023-02-14T14:55:34;7.80;70.00
14850;DHT22;7517;48.400;11.770;2023-02-14T14:58:05;8.00;70.10
14850;DHT22;7517;48.400;11.770;2023-02-14T15:00:53;7.90;70.10
14850;DHT22;7517;48.400;11.770;2023-02-14T15:03:24;7.90;70.10
14850;DHT22;7517;48.400;11.770;2023-02-14T15:06:08;7.90;70.30
14850;DHT22;7517;48.400;11.770;2023-02-14T15:08:42;7.90;70.60
14850;DHT22;7517;48.400;11.770;2023-02-14T15:11:11;7.80;70.60
14850;DHT22;7517;48.400;11.770;2023-02-14T15:14:03;7.90;70.70
14850;DHT22;7517;48.400;11.770;2023-02-14T15:16:36;7.80;70.70
14850;DHT22;7517;48.400;11.770;2023-02-14T15:19:11;7.90;70.60
14850;DHT22;7517;48.400;11.770;2023-02-14T15:21:45;7.80;70.50
14850;DHT22;7517;48.400;11.770;2023-02-14T15:24:14;7.80;70.50
14850;DHT22;7517;48.400;11.770;2023-02-14T15:26:46;7.80;70.40
14850;DHT22;7517;48.400;11.770;2023-02-14T15:29:21;7.80;70.50
14850;DHT22;7517;48.400;11.770;2023-02-14T15:31:54;7.80;70.30
14850;DHT22;7517;48.400;11.770;2023-02-14T15:34:27;7.80;70.30
14850;DHT22;7517;48.400;11.770;2023-02-14T15:36:57;7.80;70.30
14850;DHT22;7517;48.400;11.770;2023-02-14T15:39:33;7.80;70.30
14850;DHT22;7517;48.400;11.770;2023-02-14T15:42:04;7.80;70.30
14850;DHT22;7517;48.400;11.770;2023-02-14T15:44:31;7.80;70.40
14850;DHT22;7517;48.400;11.770;2023-02-14T15:47:00;7.70;70.40
14850;DHT22;7517;48.400;11.770;2023-02-14T15:49:35;7.90;70.60
14850;DHT22;7517;48.400;11.770;2023-02-14T15:52:05;7.70;70.40
14850;DHT22;7517;48.400;11.770;2023-02-14T15:54:36;7.70;70.30
14850;DHT22;7517;48.400;11.770;2023-02-14T15:57:07;7.70;70.30
14850;DHT22;7517;48.400;11.770;2023-02-14T15:59:46;7.60;70.40
14850;DHT22;7517;48.400;11.770;2023-02-14T16:02:27;7.60;70.50
14850;DHT22;7517;48.400;11.770;2023-02-14T16:05:13;7.60;70.60
14850;DHT22;7517;48.400;11.770;2023-02-14T16:07:55;7.60;70.70
14850;DHT22;7517;48.400;11.770;2023-02-14T16:10:25;7.60;70.80
14850;DHT22;7517;48.400;11.770;2023-02-14T16:12:56;7.00;70.40
14850;DHT22;7517;48.400;11.770;2023-02-14T16:15:27;7.50;70.70
14850;DHT22;7517;48.400;11.770;2023-02-14T16:17:56;7.50;70.70
14850;DHT22;7517;48.400;11.770;2023-02-14T16:20:38;7.50;70.70
14850;DHT22;7517;48.400;11.770;2023-02-14T16:23:19;7.70;71.00
14850;DHT22;7517;48.400;11.770;2023-02-14T16:25:59;7.50;71.00
14850;DHT22;7517;48.400;11.770;2023-02-14T16:28:28;7.50;70.90
14850;DHT22;7517;48.400;11.770;2023-02-14T16:30:57;7.40;70.90
14850;DHT22;7517;48.400;11.770;2023-02-14T16:33:28;7.40;71.00
14850;DHT22;7517;48.400;11.770;2023-02-14T16:36:04;7.40;71.10
14850;DHT22;7517;48.400;11.770;2023-02-14T16:38:39;7.40;71.30
14850;DHT22;7517;48.400;11.770;2023-02-14T16:41:18;7.40;71.30
14850;DHT22;7517;48.400;11.770;2023-02-14T16:43:47;7.40;71.30
14850;DHT22;7517;48.400;11.770;2023-02-14T16:46:16;7.50;71.30
14850;DHT22;7517;48.400;11.770;2023-02-14T16:48:46;8.10;71.80
14850;DHT22;7517;48.400;11.770;2023-02-14T16:51:24;7.50;71.20
14850;DHT22;7517;48.400;11.770;2023-02-14T16:53:57;7.40;71.00
14850;DHT22;7517;48.400;11.770;2023-02-14T16:56:28;7.40;71.10
14850;DHT22;7517;48.400;11.770;2023-02-14T16:59:02;7.30;70.90
14850;DHT22;7517;48.400;11.770;2023-02-14T17:01:30;7.30;70.90
14850;DHT22;7517;48.400;11.770;2023-02-14T17:03:58;7.50;71.10
14850;DHT22;7517;48.400;11.770;2023-02-14T17:06:28;7.30;71.00
14850;DHT22;7517;48.400;11.770;2023-02-14T17:08:59;7.30;71.00
14850;DHT22;7517;48.400;11.770;2023-02-14T17:11:33;7.20;71.00
14850;DHT22;7517;48.400;11.770;2023-02-14T17:14:02;7.20;71.10
14850;DHT22;7517;48.400;11.770;2023-02-14T17:16:30;7.20;71.10
14850;DHT22;7517;48.400;11.770;2023-02-14T17:19:01;7.20;71.10
14850;DHT22;7517;48.400;11.770;2023-02-14T17:21:31;7.20;71.30